createdAt,value
2023-02-19T00:00:35.421Z,20.03
2023-02-19T00:04:03.194Z,20.44
2023-02-19T00:07:05.346Z,20.03
2023-02-19T00:10:07.406Z,20.12
2023-02-19T00:13:39.665Z,20.15
2023-02-19T00:16:41.635Z,20.25
2023-02-19T00:19:43.814Z,20.19
2023-02-19T00:22:45.693Z,20.32
2023-02-19T00:25:47.753Z,19.97
2023-02-19T00:28:51.302Z,19.11
2023-02-19T00:31:53.471Z,19.59
2023-02-19T00:34:55.319Z,19.87
2023-02-19T00:37:57.524Z,19.34
2023-02-19T00:41:00.513Z,19.01
2023-02-19T00:44:07.740Z,18.56
2023-02-19T00:47:09.541Z,18.89
2023-02-19T00:50:14.287Z,19.65
2023-02-19T00:53:16.217Z,19.66
2023-02-19T00:56:18.871Z,19.72
2023-02-19T00:59:20.845Z,19.66
2023-02-19T01:02:23.190Z,19.82
2023-02-19T01:05:25.153Z,19.83
2023-02-19T01:08:27.522Z,19.73
2023-02-19T01:11:29.485Z,19.69
2023-02-19T01:14:31.896Z,19.31
2023-02-19T01:17:36.106Z,18.73
2023-02-19T01:20:39.635Z,18.86
2023-02-19T01:23:42.269Z,19.17
2023-02-19T01:26:44.409Z,17.28
2023-02-19T01:29:46.273Z,17.88
2023-02-19T01:32:57.017Z,17.26
2023-02-19T01:36:07.053Z,18.45
2023-02-19T01:39:10.848Z,18.39
2023-02-19T01:42:15.501Z,18.18
2023-02-19T01:45:35.570Z,17.67
2023-02-19T01:48:39.520Z,18.24
2023-02-19T01:51:46.285Z,18.47
2023-02-19T01:54:49.728Z,18.49
2023-02-19T01:57:55.246Z,17.91
2023-02-19T02:00:57.568Z,18.21
2023-02-19T02:04:00.617Z,17.54
2023-02-19T02:07:24.531Z,17.17
2023-02-19T02:10:26.759Z,17.31
2023-02-19T02:13:29.063Z,18.06
2023-02-19T02:16:45.011Z,18.19
2023-02-19T02:20:05.317Z,17.53
2023-02-19T02:23:50.378Z,17.57
2023-02-19T02:27:18.016Z,17.63
2023-02-19T02:30:41.754Z,17.26
2023-02-19T02:33:50.395Z,17.53
2023-02-19T02:36:55.759Z,17.92
2023-02-19T02:39:59.287Z,18.02
2023-02-19T02:43:01.856Z,18.47
2023-02-19T02:46:06.003Z,18.22
2023-02-19T02:49:21.084Z,17.65
2023-02-19T02:52:41.677Z,17.74
2023-02-19T02:55:47.390Z,17.58
2023-02-19T02:58:51.217Z,15.97
2023-02-19T03:02:11.716Z,16.25
2023-02-19T03:05:37.383Z,17.19
2023-02-19T03:08:45.838Z,17.68
2023-02-19T03:12:10.709Z,16.04
2023-02-19T03:15:54.534Z,16.55
2023-02-19T03:19:17.086Z,13.42
2023-02-19T03:22:25.648Z,14.04
2023-02-19T03:25:50.520Z,15.88
2023-02-19T03:29:20.023Z,14.01
2023-02-19T03:32:31.445Z,14.95
2023-02-19T03:35:41.184Z,14.31
2023-02-19T03:38:52.662Z,13.46
2023-02-19T03:41:55.172Z,14.72
2023-02-19T03:45:02.903Z,15.29
2023-02-19T03:48:15.890Z,13.84
2023-02-19T03:51:27.524Z,13.87
2023-02-19T03:54:52.991Z,13.43
2023-02-19T03:58:30.203Z,12.54
2023-02-19T04:01:36.063Z,11.73
2023-02-19T04:04:56.428Z,13.46
2023-02-19T04:08:04.241Z,13.43
2023-02-19T04:11:12.195Z,12.10
2023-02-19T04:14:23.255Z,13.11
2023-02-19T04:17:31.828Z,13.27
2023-02-19T04:20:42.364Z,14.86
2023-02-19T04:23:45.770Z,12.04
2023-02-19T04:26:52.487Z,12.91
2023-02-19T04:29:54.624Z,13.12
2023-02-19T04:32:57.893Z,13.94
2023-02-19T04:36:00.220Z,13.62
2023-02-19T04:39:02.648Z,12.84
2023-02-19T04:42:05.085Z,12.60
2023-02-19T04:45:08.184Z,12.95
2023-02-19T04:48:10.377Z,12.31
2023-02-19T04:51:13.463Z,12.60
2023-02-19T04:54:15.779Z,13.12
2023-02-19T04:57:18.384Z,13.46
2023-02-19T05:00:20.920Z,13.32
2023-02-19T05:03:23.401Z,12.00
2023-02-19T05:06:25.705Z,11.39
2023-02-19T05:09:28.165Z,11.80
2023-02-19T05:12:31.316Z,10.98
2023-02-19T05:15:33.895Z,10.73
2023-02-19T05:18:36.261Z,10.83
2023-02-19T05:21:40.481Z,11.12
2023-02-19T05:24:42.701Z,12.14
2023-02-19T05:27:45.394Z,11.76
2023-02-19T05:30:52.704Z,12.29
2023-02-19T05:33:56.843Z,10.90
2023-02-19T05:36:58.763Z,12.00
2023-02-19T05:40:01.289Z,13.06
2023-02-19T05:43:04.199Z,11.72
2023-02-19T05:46:08.462Z,11.34
2023-02-19T05:49:10.335Z,11.45
2023-02-19T05:52:13.111Z,10.23
2023-02-19T05:55:15.109Z,10.93
2023-02-19T05:58:17.583Z,11.19
2023-02-19T06:01:22.608Z,10.60
2023-02-19T06:04:25.700Z,10.91
2023-02-19T06:07:27.634Z,12.85
2023-02-19T06:10:30.219Z,10.50
2023-02-19T06:13:32.609Z,10.24
2023-02-19T06:16:35.273Z,11.10
2023-02-19T06:19:37.454Z,10.84
2023-02-19T06:22:40.102Z,10.46
2023-02-19T06:25:42.318Z,10.13
2023-02-19T06:28:46.982Z,10.49
2023-02-19T06:31:48.928Z,10.49
2023-02-19T06:34:51.209Z,10.40
2023-02-19T06:37:54.621Z,10.09
2023-02-19T06:41:02.048Z,9.92
2023-02-19T06:44:04.213Z,10.95
2023-02-19T06:47:07.377Z,10.71
2023-02-19T06:50:09.384Z,10.44
2023-02-19T06:53:12.366Z,10.37
2023-02-19T06:56:26.791Z,9.88
2023-02-19T06:59:29.330Z,10.06
2023-02-19T07:02:31.527Z,9.91
2023-02-19T07:05:34.047Z,9.68
2023-02-19T07:08:36.187Z,9.86
2023-02-19T07:11:39.910Z,9.95
2023-02-19T07:14:43.147Z,9.82
2023-02-19T07:17:45.569Z,9.91
2023-02-19T07:20:48.508Z,10.30
2023-02-19T07:23:54.298Z,10.98
2023-02-19T07:26:56.360Z,10.16
2023-02-19T07:29:59.561Z,9.98
2023-02-19T07:33:01.887Z,9.67
2023-02-19T07:36:07.877Z,9.86
2023-02-19T07:39:13.442Z,9.72
2023-02-19T07:42:15.853Z,9.51
2023-02-19T07:45:18.215Z,9.67
2023-02-19T07:48:21.430Z,9.77
2023-02-19T07:51:23.572Z,9.74
2023-02-19T07:54:26.169Z,9.57
2023-02-19T07:57:29.787Z,9.91
2023-02-19T08:00:33.598Z,9.79
2023-02-19T08:03:37.033Z,9.54
2023-02-19T08:06:39.795Z,9.57
2023-02-19T08:09:43.228Z,9.48
2023-02-19T08:13:04.292Z,9.34
2023-02-19T08:16:24.156Z,9.61
2023-02-19T08:19:32.505Z,9.38
2023-02-19T08:22:35.308Z,9.52
2023-02-19T08:25:39.489Z,9.55
2023-02-19T08:28:42.406Z,9.72
2023-02-19T08:31:44.867Z,9.54
2023-02-19T08:34:47.189Z,9.65
2023-02-19T08:37:50.916Z,12.07
2023-02-19T08:40:53.131Z,13.74
2023-02-19T08:43:55.901Z,14.41
2023-02-19T08:46:57.988Z,15.02
2023-02-19T08:50:00.555Z,15.22
2023-02-19T08:53:04.258Z,15.03
2023-02-19T08:56:12.158Z,15.07
2023-02-19T08:59:14.519Z,15.66
2023-02-19T09:02:16.938Z,15.54
2023-02-19T09:05:19.219Z,15.34
2023-02-19T09:08:24.520Z,15.85
2023-02-19T09:11:26.454Z,15.74
2023-02-19T09:14:33.236Z,15.81
2023-02-19T09:17:35.759Z,14.85
2023-02-19T09:20:38.318Z,14.72
2023-02-19T09:23:40.322Z,13.78
2023-02-19T09:26:42.684Z,12.26
2023-02-19T09:29:45.353Z,11.90
2023-02-19T09:32:48.050Z,11.39
2023-02-19T09:35:49.995Z,12.31
2023-02-19T09:38:52.656Z,12.47
2023-02-19T09:41:59.235Z,13.09
2023-02-19T09:45:02.468Z,13.57
2023-02-19T09:48:06.454Z,13.04
2023-02-19T09:51:11.025Z,12.06
2023-02-19T09:54:22.064Z,12.37
2023-02-19T09:57:26.749Z,13.12
2023-02-19T10:00:34.528Z,14.44
2023-02-19T10:03:44.010Z,14.01
2023-02-19T10:06:47.844Z,14.18
2023-02-19T10:09:59.367Z,14.07
2023-02-19T10:13:11.194Z,14.37
2023-02-19T10:16:21.869Z,14.44
2023-02-19T10:19:24.171Z,14.86
2023-02-19T10:22:27.051Z,15.30
2023-02-19T10:25:30.627Z,15.97
2023-02-19T10:28:34.906Z,15.73
2023-02-19T10:31:37.407Z,15.56
2023-02-19T10:34:39.893Z,15.78
2023-02-19T10:37:51.675Z,16.02
2023-02-19T10:41:01.431Z,15.24
2023-02-19T10:44:08.098Z,15.04
2023-02-19T10:47:20.602Z,14.78
2023-02-19T10:50:33.114Z,15.37
2023-02-19T10:53:49.292Z,15.50
2023-02-19T10:56:51.515Z,16.29
2023-02-19T11:00:30.584Z,16.07
2023-02-19T11:03:32.790Z,15.74
2023-02-19T11:06:37.367Z,16.07
2023-02-19T11:09:48.454Z,16.01
2023-02-19T11:12:53.004Z,16.82
2023-02-19T11:15:56.135Z,16.44
2023-02-19T11:18:58.961Z,16.15
2023-02-19T11:22:02.171Z,16.24
2023-02-19T11:25:25.273Z,17.00
2023-02-19T11:28:27.434Z,16.83
2023-02-19T11:31:38.126Z,16.76
2023-02-19T11:34:40.518Z,15.03
2023-02-19T11:38:00.596Z,15.66
2023-02-19T11:41:06.032Z,16.35
2023-02-19T11:44:35.010Z,16.56
2023-02-19T11:48:09.977Z,16.48
2023-02-19T11:51:39.135Z,17.06
2023-02-19T11:54:52.905Z,15.83
2023-02-19T11:58:32.849Z,16.42
2023-02-19T12:02:02.958Z,15.56
2023-02-19T12:05:20.694Z,14.67
2023-02-19T12:08:29.833Z,13.32
2023-02-19T12:11:50.635Z,14.67
2023-02-19T12:15:28.166Z,16.45
2023-02-19T12:18:44.044Z,16.09
2023-02-19T12:22:20.277Z,17.16
2023-02-19T12:25:34.328Z,17.38
2023-02-19T12:28:59.497Z,16.00
2023-02-19T12:32:22.996Z,16.76
2023-02-19T12:35:46.438Z,17.16
2023-02-19T12:38:53.653Z,15.75
2023-02-19T12:42:11.429Z,16.73
2023-02-19T12:45:23.162Z,16.33
2023-02-19T12:48:34.407Z,16.87
2023-02-19T12:51:43.525Z,14.67
2023-02-19T12:54:50.221Z,11.63
2023-02-19T12:57:55.883Z,10.57
2023-02-19T13:01:00.033Z,11.63
2023-02-19T13:04:25.777Z,11.55
2023-02-19T13:07:34.121Z,11.00
2023-02-19T13:10:55.151Z,13.06
2023-02-19T13:14:03.678Z,15.02
2023-02-19T13:17:48.478Z,14.82
2023-02-19T13:20:57.483Z,14.44
2023-02-19T13:24:07.716Z,13.71
2023-02-19T13:31:45.035Z,15.32
2023-02-19T13:35:11.769Z,15.44
2023-02-19T13:38:15.648Z,16.77
2023-02-19T13:41:38.689Z,16.30
2023-02-19T13:44:42.021Z,15.54
2023-02-19T13:48:00.215Z,16.15
2023-02-19T13:51:23.776Z,17.45
2023-02-19T13:54:42.822Z,17.96
2023-02-19T13:57:47.520Z,18.30
2023-02-19T14:00:50.668Z,18.55
2023-02-19T14:04:10.172Z,18.70
2023-02-19T14:07:12.250Z,18.80
2023-02-19T14:10:58.056Z,18.97
2023-02-19T14:14:06.867Z,19.00
2023-02-19T14:17:09.891Z,19.00
2023-02-19T14:20:15.272Z,19.06
2023-02-19T14:23:24.306Z,19.03
2023-02-19T14:26:27.005Z,19.15
2023-02-19T14:29:29.647Z,19.22
2023-02-19T14:32:32.025Z,19.28
2023-02-19T14:35:41.262Z,19.28
2023-02-19T14:38:52.064Z,19.35
2023-02-19T14:42:00.993Z,19.44
2023-02-19T14:45:07.904Z,19.42
2023-02-19T14:48:27.789Z,19.50
2023-02-19T14:51:40.246Z,19.54
2023-02-19T14:54:53.380Z,19.58
2023-02-19T14:57:58.539Z,19.63
2023-02-19T15:01:01.164Z,19.68
2023-02-19T15:04:04.588Z,17.37
2023-02-19T15:07:10.072Z,16.77
2023-02-19T15:10:15.132Z,13.73
2023-02-19T15:13:25.678Z,11.19
2023-02-19T15:16:29.294Z,10.28
2023-02-19T15:19:40.100Z,9.89
2023-02-19T15:22:42.731Z,9.79
2023-02-19T15:25:45.308Z,9.71
2023-02-19T15:28:47.885Z,10.00
2023-02-19T15:31:54.563Z,10.20
2023-02-19T15:35:03.290Z,10.49
2023-02-19T15:38:07.857Z,13.12
2023-02-19T15:41:21.091Z,15.27
2023-02-19T15:44:37.281Z,15.68
2023-02-19T15:48:00.963Z,16.19
2023-02-19T15:51:11.718Z,14.61
2023-02-19T15:54:56.225Z,14.88
2023-02-19T15:58:27.864Z,13.40
2023-02-19T16:01:33.217Z,13.46
2023-02-19T16:04:36.572Z,15.53
2023-02-19T16:07:39.830Z,14.41
2023-02-19T16:10:53.272Z,15.56
2023-02-19T16:14:29.255Z,17.45
2023-02-19T16:17:34.126Z,15.66
2023-02-19T16:20:37.049Z,13.15
2023-02-19T16:23:44.719Z,14.52
2023-02-19T16:26:47.139Z,16.79
2023-02-19T16:29:51.753Z,17.35
2023-02-19T16:33:22.044Z,18.19
2023-02-19T16:36:41.642Z,18.35
2023-02-19T16:39:44.400Z,18.66
2023-02-19T16:42:49.825Z,18.59
2023-02-19T16:45:52.259Z,18.66
2023-02-19T16:48:55.284Z,18.61
2023-02-19T16:51:59.715Z,18.66
2023-02-19T16:55:02.452Z,18.64
2023-02-19T16:58:04.661Z,18.40
2023-02-19T17:01:07.526Z,17.92
2023-02-19T17:04:12.128Z,17.33
2023-02-19T17:07:16.699Z,18.05
2023-02-19T17:10:24.371Z,18.32
2023-02-19T17:13:26.944Z,16.93
2023-02-19T17:16:34.463Z,18.12
2023-02-19T17:19:39.802Z,18.29
2023-02-19T17:22:42.081Z,17.70
2023-02-19T17:25:44.850Z,17.51
2023-02-19T17:28:47.891Z,17.03
2023-02-19T17:31:52.366Z,17.19
2023-02-19T17:34:54.635Z,17.78
2023-02-19T17:37:57.104Z,17.98
2023-02-19T17:40:59.420Z,18.19
2023-02-19T17:44:02.112Z,18.37
2023-02-19T17:47:06.949Z,18.40
2023-02-19T17:50:15.367Z,18.50
2023-02-19T17:53:17.539Z,18.50
2023-02-19T17:56:26.820Z,18.42
2023-02-19T17:59:29.188Z,18.47
2023-02-19T18:02:31.958Z,18.47
2023-02-19T18:05:34.192Z,18.45
2023-02-19T18:08:36.512Z,18.53
2023-02-19T18:11:39.274Z,18.56
2023-02-19T18:14:41.569Z,18.59
2023-02-19T18:17:44.863Z,18.57
2023-02-19T18:20:47.628Z,18.55
2023-02-19T18:23:50.458Z,18.55
2023-02-19T18:26:53.119Z,18.56
2023-02-19T18:29:56.367Z,18.57
2023-02-19T18:32:59.018Z,18.52
2023-02-19T18:36:01.098Z,18.59
2023-02-19T18:39:04.029Z,18.53
2023-02-19T18:42:06.498Z,18.55
2023-02-19T18:45:09.941Z,18.56
2023-02-19T18:48:13.750Z,18.56
2023-02-19T18:51:22.212Z,18.55
2023-02-19T18:54:24.423Z,18.52
2023-02-19T18:57:28.769Z,18.52
2023-02-19T19:00:31.674Z,18.56
2023-02-19T19:03:46.153Z,18.53
2023-02-19T19:07:00.061Z,18.53
2023-02-19T19:10:08.233Z,18.53
2023-02-19T19:13:10.742Z,18.49
2023-02-19T19:16:14.554Z,18.46
2023-02-19T19:19:17.436Z,18.43
2023-02-19T19:22:22.992Z,18.42
2023-02-19T19:25:25.028Z,18.36
2023-02-19T19:28:27.632Z,18.39
2023-02-19T19:31:36.123Z,18.39
2023-02-19T19:34:38.923Z,18.37
2023-02-19T19:37:41.279Z,18.37
2023-02-19T19:40:44.057Z,18.37
2023-02-19T19:43:46.337Z,18.42
2023-02-19T19:46:49.427Z,18.39
2023-02-19T19:49:51.574Z,18.37
2023-02-19T19:52:54.362Z,18.35
2023-02-19T19:55:56.827Z,18.43
2023-02-19T19:58:59.517Z,18.49
2023-02-19T20:02:03.277Z,18.57
2023-02-19T20:05:06.982Z,18.61
2023-02-19T20:08:08.956Z,18.64
2023-02-19T20:11:11.754Z,18.70
2023-02-19T20:14:15.595Z,18.81
2023-02-19T20:17:19.006Z,18.84
2023-02-19T20:20:22.849Z,18.87
2023-02-19T20:23:27.381Z,18.89
2023-02-19T20:26:30.723Z,18.93
2023-02-19T20:29:34.397Z,18.96
2023-02-19T20:32:36.726Z,18.97
2023-02-19T20:35:41.430Z,18.93
2023-02-19T20:38:45.080Z,18.99
2023-02-19T20:41:51.804Z,19.04
2023-02-19T20:44:54.589Z,19.01
2023-02-19T20:47:57.696Z,19.04
2023-02-19T20:51:00.284Z,19.06
2023-02-19T20:54:02.939Z,19.08
2023-02-19T20:57:06.146Z,19.11
2023-02-19T21:00:09.603Z,19.11
2023-02-19T21:03:12.370Z,19.12
2023-02-19T21:06:15.087Z,19.08
2023-02-19T21:09:17.662Z,19.10
2023-02-19T21:12:22.325Z,19.12
2023-02-19T21:15:24.489Z,19.15
2023-02-19T21:18:27.070Z,19.25
2023-02-19T21:21:31.305Z,19.31
2023-02-19T21:24:33.968Z,19.31
2023-02-19T21:27:36.762Z,19.34
2023-02-19T21:30:39.078Z,19.32
2023-02-19T21:33:41.101Z,19.34
2023-02-19T21:36:43.852Z,19.38
2023-02-19T21:39:47.105Z,19.36
2023-02-19T21:42:49.913Z,19.36
2023-02-19T21:45:52.130Z,19.41
2023-02-19T21:48:56.363Z,19.38
2023-02-19T21:51:58.565Z,19.41
2023-02-19T21:55:01.030Z,19.44
2023-02-19T21:58:03.481Z,19.34
2023-02-19T22:01:06.254Z,19.28
2023-02-19T22:04:10.472Z,19.21
2023-02-19T22:07:13.060Z,19.28
2023-02-19T22:10:16.807Z,19.28
2023-02-19T22:13:19.458Z,19.32
2023-02-19T22:16:22.010Z,19.38
2023-02-19T22:19:24.770Z,19.38
2023-02-19T22:22:26.908Z,19.41
2023-02-19T22:25:29.460Z,19.45
2023-02-19T22:28:31.494Z,19.42
2023-02-19T22:31:34.420Z,19.50
2023-02-19T22:34:43.185Z,19.50
2023-02-19T22:37:45.677Z,19.44
2023-02-19T22:40:48.023Z,19.41
2023-02-19T22:43:51.471Z,19.45
2023-02-19T22:46:55.812Z,19.47
2023-02-19T22:49:58.376Z,19.45
2023-02-19T22:53:00.742Z,19.51
2023-02-19T22:56:03.440Z,19.51
2023-02-19T22:59:05.637Z,19.52
2023-02-19T23:02:08.378Z,19.59
2023-02-19T23:05:10.464Z,19.58
2023-02-19T23:08:12.996Z,19.61
2023-02-19T23:11:21.353Z,19.59
2023-02-19T23:14:24.579Z,19.62
2023-02-19T23:17:26.866Z,19.62
2023-02-19T23:20:29.591Z,19.65
2023-02-19T23:23:31.490Z,19.65
2023-02-19T23:26:34.269Z,19.61
2023-02-19T23:29:36.230Z,19.61
2023-02-19T23:32:38.822Z,19.62
2023-02-19T23:35:40.754Z,19.59
2023-02-19T23:38:46.703Z,19.61
2023-02-19T23:41:54.085Z,19.62
2023-02-19T23:44:56.538Z,19.68
2023-02-19T23:47:58.710Z,19.65
2023-02-19T23:51:01.302Z,19.66
2023-02-19T23:54:04.300Z,19.66
2023-02-19T23:57:06.760Z,19.63
